TAM3446 SBPA-SBGR
Flight info
| Callsign | TAM3446 |
|---|---|
| Flight time | 1h 24m |
| Altitude | 37000 |
| Route | ARTIL UZ104 SAVLU UZ121 BUXUK |
| Aircraft | A321/M-SDE3FGHIRWY/LB1 |
Departure
| Time | 2026-05-06 22:50 |
|---|---|
| Airport | Porto Alegre-Salgado Filho International Airport (SBPA) |
Arrival
| Time | 2026-05-07 00:15 |
|---|---|
| Airport | São Paulo/Guarulhos–Governor André Franco Montoro International Airport (SBGR) |
| Time | Latitude | Longitude | Altitude | Speed | Heading |
|---|---|---|---|---|---|
| 2026-05-06 22:28 | -29.99035 | -51.18080 | 16 ft | 0 kts | 295° |
| 2026-05-06 22:43 | -29.99040 | -51.18068 | 17 ft | 4 kts | 293° |
| 2026-05-06 22:43 | -29.99050 | -51.18039 | 16 ft | 4 kts | 284° |
| 2026-05-06 22:43 | -29.99054 | -51.18009 | 16 ft | 4 kts | 261° |
| 2026-05-06 22:44 | -29.99045 | -51.17987 | 16 ft | 2 kts | 207° |
| 2026-05-06 22:44 | -29.99044 | -51.17987 | 16 ft | 0 kts | 207° |
| 2026-05-06 22:47 | -29.99046 | -51.17988 | 16 ft | 2 kts | 207° |
| 2026-05-06 22:47 | -29.99063 | -51.17998 | 16 ft | 4 kts | 207° |
| 2026-05-06 22:47 | -29.99091 | -51.18015 | 16 ft | 5 kts | 207° |
| 2026-05-06 22:47 | -29.99130 | -51.18038 | 16 ft | 7 kts | 206° |
| 2026-05-06 22:48 | -29.99181 | -51.18067 | 16 ft | 9 kts | 206° |
| 2026-05-06 22:48 | -29.99230 | -51.18122 | 17 ft | 11 kts | 236° |
| 2026-05-06 22:48 | -29.99270 | -51.18179 | 16 ft | 7 kts | 220° |
| 2026-05-06 22:48 | -29.99319 | -51.18209 | 16 ft | 9 kts | 205° |
| 2026-05-06 22:49 | -29.99378 | -51.18245 | 17 ft | 10 kts | 212° |
| 2026-05-06 22:49 | -29.99428 | -51.18276 | 19 ft | 5 kts | 166° |
| 2026-05-06 22:49 | -29.99439 | -51.18245 | 18 ft | 5 kts | 89° |
| 2026-05-06 22:49 | -29.99442 | -51.18146 | 18 ft | 37 kts | 92° |
| 2026-05-06 22:50 | -29.99456 | -51.17465 | 16 ft | 128 kts | 91° |
| 2026-05-06 22:50 | -29.99482 | -51.16190 | 232 ft | 174 kts | 91° |
| 2026-05-06 22:50 | -29.99510 | -51.14812 | 1252 ft | 171 kts | 92° |
| 2026-05-06 22:50 | -29.99557 | -51.13504 | 2190 ft | 154 kts | 93° |
| 2026-05-06 22:51 | -29.99611 | -51.12327 | 2848 ft | 143 kts | 91° |
| 2026-05-06 22:51 | -29.99630 | -51.11122 | 3092 ft | 160 kts | 89° |
| 2026-05-06 22:51 | -29.99637 | -51.10221 | 3192 ft | 173 kts | 89° |
| 2026-05-06 22:51 | -29.99651 | -51.08757 | 3328 ft | 191 kts | 89° |
| 2026-05-06 22:52 | -29.99671 | -51.07157 | 3467 ft | 207 kts | 89° |
| 2026-05-06 22:52 | -29.99547 | -51.05469 | 3577 ft | 217 kts | 68° |
| 2026-05-06 22:52 | -29.98562 | -51.04159 | 3690 ft | 233 kts | 26° |
| 2026-05-06 22:52 | -29.96942 | -51.03621 | 3896 ft | 254 kts | 12° |
| 2026-05-06 22:53 | -29.95196 | -51.03038 | 4385 ft | 265 kts | 17° |
| 2026-05-06 22:53 | -29.93486 | -51.02179 | 5063 ft | 271 kts | 27° |
| 2026-05-06 22:53 | -29.91850 | -51.01071 | 5768 ft | 276 kts | 31° |
| 2026-05-06 22:53 | -29.90231 | -50.99860 | 6476 ft | 279 kts | 31° |
| 2026-05-06 22:54 | -29.88596 | -50.98613 | 7159 ft | 284 kts | 31° |
| 2026-05-06 22:54 | -29.86939 | -50.97366 | 7830 ft | 286 kts | 31° |
| 2026-05-06 22:54 | -29.85250 | -50.96118 | 8470 ft | 290 kts | 30° |
| 2026-05-06 22:54 | -29.83531 | -50.94871 | 9102 ft | 294 kts | 30° |
| 2026-05-06 22:55 | -29.81784 | -50.93624 | 9727 ft | 297 kts | 28° |
| 2026-05-06 22:55 | -29.79903 | -50.92606 | 10236 ft | 304 kts | 17° |
| 2026-05-06 22:55 | -29.77787 | -50.92019 | 10416 ft | 320 kts | 4° |
| 2026-05-06 22:55 | -29.75543 | -50.91944 | 10920 ft | 325 kts | 356° |
| 2026-05-06 22:56 | -29.73268 | -50.92007 | 11581 ft | 328 kts | 356° |
| 2026-05-06 22:56 | -29.70980 | -50.92056 | 12285 ft | 330 kts | 356° |
| 2026-05-06 22:56 | -29.68673 | -50.92102 | 12991 ft | 333 kts | 356° |
| 2026-05-06 22:56 | -29.66343 | -50.92149 | 13623 ft | 337 kts | 356° |
| 2026-05-06 22:57 | -29.63979 | -50.92197 | 14226 ft | 342 kts | 356° |
| 2026-05-06 22:57 | -29.61581 | -50.92249 | 14802 ft | 347 kts | 356° |
| 2026-05-06 22:57 | -29.59152 | -50.92302 | 15008 ft | 350 kts | 356° |
| 2026-05-06 22:57 | -29.56713 | -50.92355 | 15057 ft | 351 kts | 356° |
| 2026-05-06 22:58 | -29.54274 | -50.92405 | 15065 ft | 351 kts | 356° |
| 2026-05-06 22:58 | -29.51834 | -50.92457 | 15069 ft | 351 kts | 356° |
| 2026-05-06 22:58 | -29.49396 | -50.92511 | 15079 ft | 351 kts | 356° |
| 2026-05-06 22:58 | -29.46953 | -50.92565 | 15085 ft | 351 kts | 356° |
| 2026-05-06 22:59 | -29.44514 | -50.92619 | 15090 ft | 351 kts | 356° |
| 2026-05-06 22:59 | -29.42074 | -50.92673 | 15101 ft | 351 kts | 356° |
| 2026-05-06 22:59 | -29.39651 | -50.92727 | 15540 ft | 354 kts | 356° |
| 2026-05-06 22:59 | -29.37178 | -50.92781 | 16161 ft | 357 kts | 356° |
| 2026-05-06 23:00 | -29.34678 | -50.92834 | 16711 ft | 362 kts | 356° |
| 2026-05-06 23:00 | -29.32147 | -50.92888 | 17273 ft | 366 kts | 356° |
| 2026-05-06 23:00 | -29.29588 | -50.92943 | 17817 ft | 370 kts | 356° |
| 2026-05-06 23:00 | -29.27000 | -50.92998 | 18352 ft | 374 kts | 355° |
| 2026-05-06 23:01 | -29.24386 | -50.93055 | 18870 ft | 378 kts | 355° |
| 2026-05-06 23:01 | -29.21745 | -50.93112 | 19386 ft | 381 kts | 355° |
| 2026-05-06 23:01 | -29.19084 | -50.93170 | 19919 ft | 384 kts | 355° |
| 2026-05-06 23:01 | -29.16402 | -50.93227 | 20429 ft | 387 kts | 355° |
| 2026-05-06 23:02 | -29.13704 | -50.93281 | 20939 ft | 390 kts | 355° |
| 2026-05-06 23:02 | -29.10984 | -50.93332 | 21412 ft | 393 kts | 355° |
| 2026-05-06 23:02 | -29.08241 | -50.93383 | 21906 ft | 395 kts | 355° |
| 2026-05-06 23:02 | -29.05483 | -50.93432 | 22383 ft | 398 kts | 355° |
| 2026-05-06 23:03 | -29.02707 | -50.93481 | 22846 ft | 400 kts | 354° |
| 2026-05-06 23:03 | -28.99910 | -50.93533 | 23294 ft | 403 kts | 354° |
| 2026-05-06 23:03 | -28.97100 | -50.93586 | 23729 ft | 405 kts | 354° |
| 2026-05-06 23:03 | -28.94273 | -50.93639 | 24152 ft | 408 kts | 354° |
| 2026-05-06 23:04 | -28.91425 | -50.93696 | 24558 ft | 411 kts | 354° |
| 2026-05-06 23:04 | -28.88559 | -50.93755 | 24947 ft | 413 kts | 354° |
| 2026-05-06 23:04 | -28.85671 | -50.93814 | 25337 ft | 416 kts | 354° |
| 2026-05-06 23:04 | -28.82755 | -50.93601 | 25701 ft | 426 kts | 5° |
| 2026-05-06 23:05 | -28.79863 | -50.92729 | 26055 ft | 436 kts | 17° |
| 2026-05-06 23:05 | -28.77113 | -50.91202 | 26406 ft | 443 kts | 26° |
| 2026-05-06 23:05 | -28.74418 | -50.89472 | 26756 ft | 446 kts | 25° |
| 2026-05-06 23:05 | -28.71701 | -50.87733 | 27095 ft | 449 kts | 25° |
| 2026-05-06 23:06 | -28.68963 | -50.85989 | 27431 ft | 452 kts | 25° |
| 2026-05-06 23:06 | -28.66209 | -50.84238 | 27761 ft | 455 kts | 25° |
| 2026-05-06 23:06 | -28.63440 | -50.82484 | 28099 ft | 457 kts | 25° |
| 2026-05-06 23:06 | -28.60650 | -50.80721 | 28414 ft | 460 kts | 25° |
| 2026-05-06 23:07 | -28.57846 | -50.78950 | 28730 ft | 462 kts | 25° |
| 2026-05-06 23:07 | -28.55026 | -50.77169 | 29023 ft | 465 kts | 25° |
| 2026-05-06 23:07 | -28.52193 | -50.75380 | 29301 ft | 467 kts | 25° |
| 2026-05-06 23:07 | -28.49345 | -50.73582 | 29567 ft | 470 kts | 25° |
| 2026-05-06 23:08 | -28.46479 | -50.71770 | 29848 ft | 473 kts | 25° |
| 2026-05-06 23:08 | -28.43594 | -50.69949 | 30130 ft | 475 kts | 25° |
| 2026-05-06 23:08 | -28.40694 | -50.68119 | 30405 ft | 478 kts | 25° |
| 2026-05-06 23:08 | -28.37781 | -50.66280 | 30655 ft | 481 kts | 25° |
| 2026-05-06 23:09 | -28.34847 | -50.64427 | 30856 ft | 484 kts | 25° |
| 2026-05-06 23:09 | -28.31893 | -50.62567 | 31069 ft | 488 kts | 25° |
| 2026-05-06 23:09 | -28.28910 | -50.60689 | 31280 ft | 491 kts | 25° |
| 2026-05-06 23:09 | -28.25917 | -50.58806 | 31542 ft | 493 kts | 25° |
| 2026-05-06 23:10 | -28.22911 | -50.56914 | 31841 ft | 494 kts | 25° |
| 2026-05-06 23:10 | -28.19905 | -50.55022 | 32103 ft | 496 kts | 25° |
| 2026-05-06 23:10 | -28.16917 | -50.53147 | 32337 ft | 498 kts | 26° |
| 2026-05-06 23:10 | -28.13886 | -50.51246 | 32572 ft | 500 kts | 25° |
| 2026-05-06 23:11 | -28.10836 | -50.49333 | 32808 ft | 502 kts | 25° |
| 2026-05-06 23:11 | -28.07773 | -50.47414 | 33068 ft | 504 kts | 25° |
| 2026-05-06 23:11 | -28.04702 | -50.45490 | 33296 ft | 506 kts | 25° |
| 2026-05-06 23:11 | -28.01620 | -50.43562 | 33576 ft | 506 kts | 25° |
| 2026-05-06 23:12 | -27.98542 | -50.41638 | 33833 ft | 506 kts | 25° |
| 2026-05-06 23:12 | -27.95449 | -50.39708 | 34050 ft | 508 kts | 26° |
| 2026-05-06 23:12 | -27.92338 | -50.37774 | 34266 ft | 510 kts | 25° |
| 2026-05-06 23:12 | -27.89230 | -50.35838 | 34506 ft | 511 kts | 25° |
| 2026-05-06 23:13 | -27.86120 | -50.33903 | 34781 ft | 511 kts | 25° |
| 2026-05-06 23:13 | -27.83004 | -50.31961 | 35073 ft | 511 kts | 25° |
| 2026-05-06 23:13 | -27.79893 | -50.30021 | 35343 ft | 510 kts | 25° |
| 2026-05-06 23:13 | -27.76789 | -50.28081 | 35619 ft | 510 kts | 25° |
| 2026-05-06 23:14 | -27.73689 | -50.26146 | 35886 ft | 509 kts | 25° |
| 2026-05-06 23:14 | -27.70592 | -50.24213 | 36128 ft | 509 kts | 25° |
| 2026-05-06 23:14 | -27.67499 | -50.22290 | 36374 ft | 508 kts | 25° |
| 2026-05-06 23:14 | -27.64400 | -50.20369 | 36608 ft | 508 kts | 25° |
| 2026-05-06 23:15 | -27.61306 | -50.18455 | 36839 ft | 507 kts | 25° |
| 2026-05-06 23:15 | -27.58216 | -50.16545 | 37051 ft | 507 kts | 25° |
| 2026-05-06 23:15 | -27.55140 | -50.14635 | 37107 ft | 501 kts | 25° |
| 2026-05-06 23:16 | -27.49095 | -50.10880 | 37111 ft | 493 kts | 25° |
| 2026-05-06 23:16 | -27.43092 | -50.07165 | 37111 ft | 492 kts | 25° |
| 2026-05-06 23:17 | -27.37140 | -50.03475 | 37107 ft | 492 kts | 25° |
| 2026-05-06 23:17 | -27.31160 | -49.99757 | 37106 ft | 491 kts | 25° |
| 2026-05-06 23:18 | -27.25178 | -49.96045 | 37110 ft | 491 kts | 25° |
| 2026-05-06 23:18 | -27.19193 | -49.92336 | 37103 ft | 491 kts | 25° |
| 2026-05-06 23:19 | -27.13207 | -49.88633 | 37108 ft | 492 kts | 25° |
| 2026-05-06 23:19 | -27.07214 | -49.84929 | 37107 ft | 492 kts | 25° |
| 2026-05-06 23:20 | -27.01220 | -49.81236 | 37111 ft | 491 kts | 25° |
| 2026-05-06 23:20 | -26.95225 | -49.77547 | 37113 ft | 491 kts | 25° |
| 2026-05-06 23:21 | -26.89239 | -49.73865 | 37110 ft | 491 kts | 26° |
| 2026-05-06 23:21 | -26.83257 | -49.70194 | 37112 ft | 490 kts | 25° |
| 2026-05-06 23:22 | -26.77276 | -49.66524 | 37105 ft | 490 kts | 26° |
| 2026-05-06 23:22 | -26.71292 | -49.62855 | 37111 ft | 491 kts | 26° |
| 2026-05-06 23:23 | -26.65314 | -49.59192 | 37109 ft | 490 kts | 26° |
| 2026-05-06 23:23 | -26.59338 | -49.55528 | 37109 ft | 490 kts | 26° |
| 2026-05-06 23:24 | -26.53360 | -49.51880 | 37109 ft | 490 kts | 26° |
| 2026-05-06 23:24 | -26.47374 | -49.48244 | 37114 ft | 489 kts | 26° |
| 2026-05-06 23:25 | -26.41398 | -49.44613 | 37111 ft | 489 kts | 26° |
| 2026-05-06 23:25 | -26.35430 | -49.40970 | 37113 ft | 489 kts | 26° |
| 2026-05-06 23:26 | -26.29461 | -49.37340 | 37100 ft | 489 kts | 26° |
| 2026-05-06 23:26 | -26.23490 | -49.33721 | 37104 ft | 489 kts | 26° |
| 2026-05-06 23:27 | -26.17516 | -49.30100 | 37107 ft | 489 kts | 26° |
| 2026-05-06 23:27 | -26.11538 | -49.26483 | 37119 ft | 489 kts | 26° |
| 2026-05-06 23:28 | -26.05637 | -49.22704 | 37133 ft | 490 kts | 29° |
| 2026-05-06 23:28 | -25.99836 | -49.18730 | 37146 ft | 490 kts | 30° |
| 2026-05-06 23:29 | -25.94025 | -49.14756 | 37155 ft | 490 kts | 30° |
| 2026-05-06 23:29 | -25.88191 | -49.10847 | 37161 ft | 490 kts | 29° |
| 2026-05-06 23:30 | -25.82339 | -49.06966 | 37162 ft | 490 kts | 29° |
| 2026-05-06 23:30 | -25.76483 | -49.03088 | 37163 ft | 490 kts | 29° |
| 2026-05-06 23:31 | -25.70642 | -48.99206 | 37182 ft | 490 kts | 30° |
| 2026-05-06 23:31 | -25.64829 | -48.95345 | 37192 ft | 491 kts | 29° |
| 2026-05-06 23:32 | -25.58974 | -48.91462 | 37195 ft | 491 kts | 29° |
| 2026-05-06 23:32 | -25.53114 | -48.87582 | 37198 ft | 491 kts | 29° |
| 2026-05-06 23:33 | -25.47251 | -48.83709 | 37204 ft | 491 kts | 29° |
| 2026-05-06 23:33 | -25.41314 | -48.79979 | 37212 ft | 490 kts | 27° |
| 2026-05-06 23:34 | -25.35306 | -48.76399 | 37214 ft | 491 kts | 26° |
| 2026-05-06 23:34 | -25.29296 | -48.72819 | 37214 ft | 490 kts | 27° |
| 2026-05-06 23:35 | -25.23318 | -48.69194 | 37209 ft | 490 kts | 27° |
| 2026-05-06 23:35 | -25.17343 | -48.65560 | 37212 ft | 490 kts | 27° |
| 2026-05-06 23:36 | -25.11359 | -48.61949 | 37218 ft | 490 kts | 27° |
| 2026-05-06 23:36 | -25.05409 | -48.58383 | 37216 ft | 490 kts | 27° |
| 2026-05-06 23:37 | -24.99420 | -48.54792 | 37218 ft | 490 kts | 27° |
| 2026-05-06 23:37 | -24.94408 | -48.51773 | 37220 ft | 490 kts | 27° |
| 2026-05-06 23:38 | -24.87468 | -48.47574 | 37219 ft | 490 kts | 27° |
| 2026-05-06 23:38 | -24.82468 | -48.44544 | 37220 ft | 489 kts | 28° |
| 2026-05-06 23:39 | -24.76535 | -48.40964 | 37219 ft | 490 kts | 27° |
| 2026-05-06 23:39 | -24.70560 | -48.37369 | 37218 ft | 489 kts | 28° |
| 2026-05-06 23:40 | -24.64587 | -48.33780 | 37217 ft | 489 kts | 28° |
| 2026-05-06 23:40 | -24.58613 | -48.30191 | 37215 ft | 489 kts | 28° |
| 2026-05-06 23:41 | -24.52645 | -48.26603 | 37215 ft | 489 kts | 28° |
| 2026-05-06 23:41 | -24.46674 | -48.23019 | 37217 ft | 489 kts | 28° |
| 2026-05-06 23:42 | -24.40696 | -48.19439 | 37221 ft | 489 kts | 28° |
| 2026-05-06 23:42 | -24.34720 | -48.15864 | 37222 ft | 490 kts | 28° |
| 2026-05-06 23:43 | -24.28730 | -48.12305 | 37223 ft | 490 kts | 28° |
| 2026-05-06 23:43 | -24.22726 | -48.08772 | 37218 ft | 490 kts | 28° |
| 2026-05-06 23:44 | -24.16717 | -48.05250 | 37209 ft | 490 kts | 28° |
| 2026-05-06 23:44 | -24.10712 | -48.01722 | 36744 ft | 494 kts | 28° |
| 2026-05-06 23:44 | -24.07662 | -47.99927 | 35984 ft | 499 kts | 28° |
| 2026-05-06 23:45 | -24.04610 | -47.98132 | 35396 ft | 498 kts | 28° |
| 2026-05-06 23:45 | -24.01552 | -47.96336 | 34785 ft | 499 kts | 28° |
| 2026-05-06 23:45 | -23.98496 | -47.94542 | 34194 ft | 499 kts | 28° |
| 2026-05-06 23:45 | -23.95440 | -47.92746 | 33582 ft | 499 kts | 28° |
| 2026-05-06 23:46 | -23.92375 | -47.90944 | 32968 ft | 499 kts | 28° |
| 2026-05-06 23:46 | -23.89319 | -47.89149 | 32332 ft | 499 kts | 28° |
| 2026-05-06 23:46 | -23.86260 | -47.87354 | 31689 ft | 499 kts | 28° |
| 2026-05-06 23:46 | -23.83196 | -47.85561 | 31055 ft | 498 kts | 28° |
| 2026-05-06 23:47 | -23.80145 | -47.83780 | 30432 ft | 496 kts | 28° |
| 2026-05-06 23:47 | -23.77162 | -47.81898 | 29822 ft | 493 kts | 35° |
| 2026-05-06 23:47 | -23.74496 | -47.79597 | 29298 ft | 487 kts | 44° |
| 2026-05-06 23:47 | -23.72072 | -47.77045 | 28743 ft | 482 kts | 45° |
| 2026-05-06 23:48 | -23.69676 | -47.74509 | 28201 ft | 478 kts | 45° |
| 2026-05-06 23:48 | -23.67298 | -47.72003 | 27669 ft | 473 kts | 45° |
| 2026-05-06 23:48 | -23.64938 | -47.69526 | 27144 ft | 468 kts | 45° |
| 2026-05-06 23:48 | -23.62611 | -47.67088 | 26796 ft | 459 kts | 45° |
| 2026-05-06 23:49 | -23.60333 | -47.64701 | 26464 ft | 450 kts | 45° |
| 2026-05-06 23:49 | -23.58102 | -47.62360 | 26158 ft | 440 kts | 45° |
| 2026-05-06 23:49 | -23.55916 | -47.60062 | 25837 ft | 433 kts | 45° |
| 2026-05-06 23:49 | -23.53765 | -47.57801 | 25507 ft | 428 kts | 45° |
| 2026-05-06 23:50 | -23.51629 | -47.55556 | 25185 ft | 425 kts | 45° |
| 2026-05-06 23:50 | -23.47407 | -47.51122 | 24544 ft | 419 kts | 45° |
| 2026-05-06 23:50 | -23.45317 | -47.48929 | 24233 ft | 416 kts | 45° |
| 2026-05-06 23:51 | -23.43241 | -47.46749 | 23916 ft | 413 kts | 45° |
| 2026-05-06 23:51 | -23.41175 | -47.44585 | 23598 ft | 411 kts | 45° |
| 2026-05-06 23:51 | -23.39119 | -47.42441 | 23285 ft | 408 kts | 45° |
| 2026-05-06 23:51 | -23.37077 | -47.40312 | 23007 ft | 406 kts | 45° |
| 2026-05-06 23:52 | -23.35048 | -47.38192 | 22766 ft | 403 kts | 45° |
| 2026-05-06 23:52 | -23.33034 | -47.36084 | 22505 ft | 401 kts | 45° |
| 2026-05-06 23:52 | -23.31030 | -47.33987 | 22254 ft | 399 kts | 45° |
| 2026-05-06 23:52 | -23.29033 | -47.31901 | 22005 ft | 397 kts | 45° |
| 2026-05-06 23:53 | -23.27050 | -47.29832 | 21753 ft | 395 kts | 45° |
| 2026-05-06 23:53 | -23.25074 | -47.27767 | 21498 ft | 393 kts | 45° |
| 2026-05-06 23:53 | -23.23109 | -47.25715 | 21248 ft | 391 kts | 45° |
| 2026-05-06 23:53 | -23.21151 | -47.23674 | 21004 ft | 389 kts | 45° |
| 2026-05-06 23:54 | -23.19204 | -47.21647 | 20756 ft | 387 kts | 45° |
| 2026-05-06 23:54 | -23.17266 | -47.19627 | 20512 ft | 385 kts | 45° |
| 2026-05-06 23:54 | -23.15335 | -47.17619 | 20271 ft | 383 kts | 45° |
| 2026-05-06 23:54 | -23.13456 | -47.15626 | 20033 ft | 381 kts | 47° |
| 2026-05-06 23:55 | -23.11607 | -47.13525 | 19789 ft | 379 kts | 49° |
| 2026-05-06 23:55 | -23.09835 | -47.11417 | 19555 ft | 377 kts | 50° |
| 2026-05-06 23:55 | -23.08087 | -47.09301 | 19313 ft | 375 kts | 50° |
| 2026-05-06 23:55 | -23.06349 | -47.07197 | 18998 ft | 374 kts | 50° |
| 2026-05-06 23:56 | -23.04621 | -47.05120 | 18394 ft | 376 kts | 50° |
| 2026-05-06 23:56 | -23.02862 | -47.03022 | 17851 ft | 376 kts | 49° |
| 2026-05-06 23:56 | -23.01093 | -47.00937 | 17307 ft | 375 kts | 49° |
| 2026-05-06 23:56 | -22.99323 | -46.98868 | 16766 ft | 374 kts | 49° |
| 2026-05-06 23:57 | -22.97557 | -46.96800 | 16219 ft | 373 kts | 49° |
| 2026-05-06 23:57 | -22.95789 | -46.94726 | 15492 ft | 377 kts | 49° |
| 2026-05-06 23:57 | -22.94023 | -46.92654 | 15157 ft | 370 kts | 48° |
| 2026-05-06 23:57 | -22.92302 | -46.90637 | 14960 ft | 358 kts | 48° |
| 2026-05-06 23:58 | -22.90642 | -46.88691 | 14832 ft | 345 kts | 48° |
| 2026-05-06 23:58 | -22.89043 | -46.86812 | 14706 ft | 333 kts | 48° |
| 2026-05-06 23:58 | -22.87499 | -46.84993 | 14531 ft | 323 kts | 50° |
| 2026-05-06 23:58 | -22.86264 | -46.83000 | 14280 ft | 315 kts | 67° |
| 2026-05-06 23:59 | -22.85690 | -46.80743 | 14021 ft | 309 kts | 86° |
| 2026-05-06 23:59 | -22.85856 | -46.78442 | 13770 ft | 307 kts | 106° |
| 2026-05-06 23:59 | -22.86727 | -46.76383 | 13518 ft | 296 kts | 126° |
| 2026-05-06 23:59 | -22.88121 | -46.74823 | 13263 ft | 284 kts | 144° |
| 2026-05-07 00:00 | -22.89786 | -46.73763 | 13005 ft | 272 kts | 150° |
| 2026-05-07 00:00 | -22.91414 | -46.72791 | 12754 ft | 262 kts | 150° |
| 2026-05-07 00:00 | -22.92975 | -46.71852 | 12505 ft | 252 kts | 150° |
| 2026-05-07 00:00 | -22.94475 | -46.70946 | 12251 ft | 242 kts | 149° |
| 2026-05-07 00:01 | -22.95919 | -46.70071 | 12000 ft | 235 kts | 149° |
| 2026-05-07 00:01 | -22.97337 | -46.69211 | 11751 ft | 233 kts | 149° |
| 2026-05-07 00:01 | -22.98752 | -46.68354 | 11501 ft | 232 kts | 149° |
| 2026-05-07 00:01 | -23.00160 | -46.67503 | 11251 ft | 231 kts | 150° |
| 2026-05-07 00:02 | -23.01565 | -46.66658 | 11003 ft | 230 kts | 150° |
| 2026-05-07 00:02 | -23.02961 | -46.65816 | 10751 ft | 229 kts | 150° |
| 2026-05-07 00:02 | -23.04354 | -46.64974 | 10499 ft | 229 kts | 150° |
| 2026-05-07 00:02 | -23.05738 | -46.64136 | 10247 ft | 228 kts | 149° |
| 2026-05-07 00:03 | -23.07119 | -46.63298 | 10012 ft | 229 kts | 149° |
| 2026-05-07 00:03 | -23.08496 | -46.62467 | 9832 ft | 224 kts | 149° |
| 2026-05-07 00:03 | -23.09858 | -46.61649 | 9561 ft | 228 kts | 150° |
| 2026-05-07 00:03 | -23.11311 | -46.60898 | 9178 ft | 228 kts | 166° |
| 2026-05-07 00:04 | -23.12685 | -46.60947 | 9759 ft | 199 kts | 189° |
| 2026-05-07 00:04 | -23.14084 | -46.61325 | 9359 ft | 211 kts | 194° |
| 2026-05-07 00:04 | -23.15486 | -46.61746 | 9189 ft | 206 kts | 195° |
| 2026-05-07 00:04 | -23.16882 | -46.62180 | 9139 ft | 208 kts | 195° |
| 2026-05-07 00:05 | -23.18263 | -46.62616 | 9093 ft | 206 kts | 195° |
| 2026-05-07 00:05 | -23.19639 | -46.63054 | 9053 ft | 206 kts | 195° |
| 2026-05-07 00:05 | -23.21011 | -46.63491 | 9006 ft | 205 kts | 195° |
| 2026-05-07 00:05 | -23.22383 | -46.63931 | 8963 ft | 205 kts | 195° |
| 2026-05-07 00:06 | -23.23750 | -46.64371 | 8915 ft | 205 kts | 196° |
| 2026-05-07 00:06 | -23.25121 | -46.64815 | 8873 ft | 205 kts | 195° |
| 2026-05-07 00:06 | -23.26489 | -46.65258 | 8822 ft | 205 kts | 195° |
| 2026-05-07 00:06 | -23.27850 | -46.65697 | 8689 ft | 203 kts | 195° |
| 2026-05-07 00:07 | -23.29204 | -46.66135 | 8405 ft | 203 kts | 195° |
| 2026-05-07 00:07 | -23.30552 | -46.66571 | 8135 ft | 202 kts | 195° |
| 2026-05-07 00:07 | -23.31891 | -46.67004 | 7859 ft | 200 kts | 195° |
| 2026-05-07 00:07 | -23.33226 | -46.67435 | 7574 ft | 200 kts | 195° |
| 2026-05-07 00:08 | -23.34554 | -46.67867 | 7291 ft | 199 kts | 195° |
| 2026-05-07 00:08 | -23.35883 | -46.68297 | 7027 ft | 199 kts | 195° |
| 2026-05-07 00:08 | -23.37199 | -46.68722 | 6876 ft | 197 kts | 194° |
| 2026-05-07 00:08 | -23.38513 | -46.69145 | 6652 ft | 197 kts | 194° |
| 2026-05-07 00:09 | -23.39820 | -46.69567 | 6353 ft | 195 kts | 194° |
| 2026-05-07 00:09 | -23.41140 | -46.69878 | 6059 ft | 193 kts | 178° |
| 2026-05-07 00:09 | -23.42445 | -46.69659 | 5795 ft | 189 kts | 156° |
| 2026-05-07 00:09 | -23.43553 | -46.68940 | 5536 ft | 184 kts | 134° |
| 2026-05-07 00:10 | -23.44318 | -46.67900 | 5421 ft | 170 kts | 122° |
| 2026-05-07 00:10 | -23.44958 | -46.66871 | 5295 ft | 157 kts | 122° |
| 2026-05-07 00:10 | -23.45562 | -46.65915 | 5008 ft | 152 kts | 123° |
| 2026-05-07 00:10 | -23.46157 | -46.64970 | 4677 ft | 151 kts | 123° |
| 2026-05-07 00:11 | -23.46743 | -46.64038 | 4501 ft | 149 kts | 123° |
| 2026-05-07 00:11 | -23.47243 | -46.63045 | 4488 ft | 150 kts | 107° |
| 2026-05-07 00:11 | -23.47356 | -46.61923 | 4477 ft | 151 kts | 78° |
| 2026-05-07 00:11 | -23.47084 | -46.60821 | 4486 ft | 151 kts | 76° |
| 2026-05-07 00:12 | -23.46819 | -46.59712 | 4430 ft | 152 kts | 75° |
| 2026-05-07 00:12 | -23.46537 | -46.58609 | 4289 ft | 151 kts | 75° |
| 2026-05-07 00:12 | -23.46248 | -46.57513 | 4105 ft | 151 kts | 74° |
| 2026-05-07 00:12 | -23.45958 | -46.56427 | 3919 ft | 149 kts | 75° |
| 2026-05-07 00:13 | -23.45668 | -46.55343 | 3727 ft | 149 kts | 74° |
| 2026-05-07 00:13 | -23.45376 | -46.54258 | 3522 ft | 150 kts | 74° |
| 2026-05-07 00:13 | -23.45079 | -46.53155 | 3325 ft | 153 kts | 73° |
| 2026-05-07 00:13 | -23.44780 | -46.52044 | 3122 ft | 153 kts | 73° |
| 2026-05-07 00:14 | -23.44481 | -46.50936 | 2919 ft | 152 kts | 73° |
| 2026-05-07 00:14 | -23.44184 | -46.49834 | 2723 ft | 151 kts | 73° |
| 2026-05-07 00:14 | -23.43889 | -46.48736 | 2511 ft | 151 kts | 73° |
| 2026-05-07 00:14 | -23.43624 | -46.47743 | 2470 ft | 108 kts | 72° |
| 2026-05-07 00:15 | -23.43521 | -46.47381 | 2469 ft | 22 kts | 73° |
| 2026-05-07 00:15 | -23.43485 | -46.47242 | 2468 ft | 24 kts | 76° |
| 2026-05-07 00:15 | -23.43425 | -46.47030 | 2474 ft | 31 kts | 68° |
| 2026-05-07 00:15 | -23.43293 | -46.46853 | 2472 ft | 29 kts | 44° |
| 2026-05-07 00:16 | -23.43154 | -46.46718 | 2471 ft | 18 kts | 26° |
| 2026-05-07 00:16 | -23.43042 | -46.46735 | 2472 ft | 15 kts | 332° |
| 2026-05-07 00:16 | -23.42944 | -46.46769 | 2471 ft | 15 kts | 349° |
| 2026-05-07 00:16 | -23.42843 | -46.46797 | 2472 ft | 15 kts | 343° |
| 2026-05-07 00:17 | -23.42779 | -46.46888 | 2471 ft | 21 kts | 254° |
| 2026-05-07 00:17 | -23.42830 | -46.47066 | 2470 ft | 29 kts | 253° |
| 2026-05-07 00:17 | -23.42896 | -46.47305 | 2471 ft | 37 kts | 253° |
| 2026-05-07 00:17 | -23.42955 | -46.47539 | 2470 ft | 29 kts | 256° |
| 2026-05-07 00:18 | -23.42999 | -46.47706 | 2470 ft | 22 kts | 253° |
| 2026-05-07 00:18 | -23.43008 | -46.47815 | 2471 ft | 5 kts | 329° |
| 2026-05-07 00:18 | -23.42979 | -46.47819 | 2468 ft | 4 kts | 350° |
| 2026-05-07 00:18 | -23.42961 | -46.47845 | 2468 ft | 6 kts | 282° |
| 2026-05-07 00:19 | -23.42972 | -46.47911 | 2468 ft | 14 kts | 256° |
| 2026-05-07 00:19 | -23.43008 | -46.48044 | 2474 ft | 21 kts | 253° |
| 2026-05-07 00:19 | -23.43041 | -46.48154 | 2468 ft | 14 kts | 256° |
| 2026-05-07 00:19 | -23.43053 | -46.48259 | 2468 ft | 14 kts | 265° |
| 2026-05-07 00:20 | -23.43061 | -46.48359 | 2468 ft | 13 kts | 264° |
| 2026-05-07 00:20 | -23.43046 | -46.48444 | 2468 ft | 11 kts | 315° |
| 2026-05-07 00:20 | -23.42981 | -46.48452 | 2470 ft | 9 kts | 360° |
| 2026-05-07 00:20 | -23.42920 | -46.48450 | 2474 ft | 8 kts | 2° |
| 2026-05-07 00:21 | -23.42874 | -46.48438 | 2468 ft | 6 kts | 54° |
| 2026-05-07 00:21 | -23.42867 | -46.48412 | 2468 ft | 5 kts | 88° |
| 2026-05-07 00:21 | -23.42867 | -46.48384 | 2468 ft | 1 kts | 88° |
| 2026-05-07 00:21 | -23.42865 | -46.48361 | 2468 ft | 3 kts | 85° |
| 2026-05-07 00:22 | -23.42864 | -46.48347 | 2468 ft | 3 kts | 86° |